Brook Park, OH

9:50 AM EST on February 09, 2016 (GMT -0500)
Brook Park | | Change Station
CLOSE
Current Station
Personal Weather Station
Location: Brook Park, OH
Elevation: 832 ft
Nearby Weather Stations

Elev 832 ft 41.39 °N, 81.79 °W | Updated 8 seconds ago

Overcast
Overcast
30.1 °F
Feels Like 30 °F
N
0.5
Wind Variable Wind from WSW
Gusts 6.9 mph

Today
High -- | Low -- °F
--% Chance of Precip.
Yesterday
High -- | Low -- °F
Precip. -- in
Pressure 29.63 in
Visibility 8.0 miles
Clouds Overcast 1500 ft
Windchill 30 °F
Dew Point 28 °F
Humidity 91%
Rainfall 0.00 in
Snow Depth Not available.
7:30 AM 5:52 PM
New Moon, 1% visible
METAR KCLE 091351Z 25011KT 8SM OVC015 M01/M04 A2961 RMK AO2 SLP033 T10111039
Pressure 29.63 in
Visibility 8.0 miles
Clouds Overcast 1500 ft
Windchill 30 °F
Dew Point 28 °F
Humidity 91%
Rainfall 0.00 in
Snow Depth Not available.
7:30 AM 5:52 PM
New Moon, 1% visible
METAR KCLE 091351Z 25011KT 8SM OVC015 M01/M04 A2961 RMK AO2 SLP033 T10111039

10-Day Weather Forecast

Almanac

Astronomy

Feb. 09, 2016 Rise Set
Actual Time
Civil Twilight
Nautical Twilight
Astronomical Twilight
Moon
Length of Visible Light
Length of Day
Tomorrow will be .
, % of the Moon is Illuminated

Today's Extremes

State Highs State Lows

Community

WunderPhotos

Upload Photos

1,891,614 photos uploaded!

WunderBlog® & News

Nearby

Air Quality

  Air Quality AQ Index Pollutant
Not available.

Snow Depth

Station Depth Elevation

Earthquake Activity

City Distance Mag. Time & Date
Minimum magnitude displayed is 2.5.

Coastal Water Temperatures

Place Temperature

Stations

Nearby Weather Stations

Station Location Temp. Windchill Dew Point Humidity Wind Precip. Elev Updated Type
                   

Watches & Warnings

There are currently no watches in effect.